createdAt,value
2022-12-25T00:01:54.442Z,99.84
2022-12-25T00:04:56.643Z,99.62
2022-12-25T00:07:58.934Z,99.44
2022-12-25T00:11:06.991Z,99.72
2022-12-25T00:14:09.385Z,99.92
2022-12-25T00:17:11.608Z,99.99
2022-12-25T00:20:13.891Z,99.99
2022-12-25T00:23:16.104Z,99.99
2022-12-25T00:26:18.581Z,99.77
2022-12-25T00:29:20.821Z,99.46
2022-12-25T00:32:23.068Z,99.35
2022-12-25T00:35:25.278Z,99.34
2022-12-25T00:38:28.019Z,99.50
2022-12-25T00:41:48.902Z,99.34
2022-12-25T00:44:51.238Z,98.67
2022-12-25T00:47:53.746Z,98.33
2022-12-25T00:50:58.493Z,98.66
2022-12-25T00:54:00.717Z,99.45
2022-12-25T00:57:03.685Z,99.72
2022-12-25T01:00:06.471Z,99.99
2022-12-25T01:03:08.783Z,99.99
2022-12-25T01:06:12.865Z,99.99
2022-12-25T01:09:33.913Z,99.89
2022-12-25T01:12:40.584Z,99.36
2022-12-25T01:15:45.536Z,99.36
2022-12-25T01:18:47.775Z,99.45
2022-12-25T01:21:50.015Z,99.39
2022-12-25T01:24:52.333Z,99.67
2022-12-25T01:27:54.560Z,99.47
2022-12-25T01:30:57.078Z,99.24
2022-12-25T01:33:59.295Z,99.27
2022-12-25T01:37:01.567Z,99.08
2022-12-25T01:40:04.944Z,99.47
2022-12-25T01:43:25.993Z,99.99
2022-12-25T01:46:28.738Z,99.99
2022-12-25T01:49:33.279Z,99.99
2022-12-25T01:52:35.551Z,99.99
2022-12-25T01:55:38.735Z,99.81
2022-12-25T01:58:41.465Z,99.81
2022-12-25T02:01:44.116Z,99.41
2022-12-25T02:04:57.450Z,99.41
2022-12-25T02:08:04.438Z,99.42
2022-12-25T02:11:29.159Z,99.42
2022-12-25T02:14:34.620Z,99.57
2022-12-25T02:18:07.577Z,99.93
2022-12-25T02:21:18.732Z,99.99
2022-12-25T02:24:39.257Z,99.99
2022-12-25T02:28:05.540Z,99.46
2022-12-25T02:31:18.019Z,99.69
2022-12-25T02:34:55.647Z,99.69
2022-12-25T02:38:17.517Z,99.20
2022-12-25T02:41:19.786Z,99.07
2022-12-25T02:44:43.409Z,99.47
2022-12-25T02:48:04.414Z,99.99
2022-12-25T02:51:30.324Z,99.99
2022-12-25T02:54:59.253Z,99.99
2022-12-25T02:58:25.822Z,99.99
2022-12-25T03:01:50.093Z,99.99
2022-12-25T03:05:15.975Z,99.99
2022-12-25T03:08:23.021Z,99.79
2022-12-25T03:11:32.040Z,99.49
2022-12-25T03:14:57.490Z,99.79
2022-12-25T03:18:03.354Z,99.61
2022-12-25T03:21:24.378Z,99.94
2022-12-25T03:24:45.376Z,99.88
2022-12-25T03:27:51.730Z,99.57
2022-12-25T03:31:13.183Z,99.18
2022-12-25T03:34:47.914Z,99.38
2022-12-25T03:38:19.476Z,99.54
2022-12-25T03:42:03.952Z,99.63
2022-12-25T03:45:31.176Z,99.62
2022-12-25T03:48:57.707Z,99.12
2022-12-25T03:52:28.399Z,99.45
2022-12-25T03:55:49.875Z,99.80
2022-12-25T03:59:17.798Z,99.99
2022-12-25T04:02:42.092Z,99.77
2022-12-25T04:06:03.283Z,99.39
2022-12-25T04:09:24.241Z,99.99
2022-12-25T04:12:44.679Z,99.99
2022-12-25T04:16:05.492Z,99.86
2022-12-25T04:19:27.962Z,99.85
2022-12-25T04:22:48.926Z,99.90
2022-12-25T04:26:09.942Z,99.77
2022-12-25T04:29:30.969Z,99.99
2022-12-25T04:32:52.117Z,99.99
2022-12-25T04:36:09.113Z,99.99
2022-12-25T04:39:11.489Z,99.98
2022-12-25T04:42:13.710Z,99.81
2022-12-25T04:45:16.082Z,99.82
2022-12-25T04:48:18.277Z,99.99
2022-12-25T04:51:23.812Z,99.99
2022-12-25T04:54:26.075Z,99.99
2022-12-25T04:57:28.316Z,99.99
2022-12-25T05:00:30.803Z,99.99
2022-12-25T05:03:34.006Z,99.99
2022-12-25T05:06:36.276Z,99.70
2022-12-25T05:09:41.815Z,99.91
2022-12-25T05:12:44.416Z,99.99
2022-12-25T05:15:46.825Z,99.99
2022-12-25T05:18:50.975Z,99.99
2022-12-25T05:21:53.933Z,99.99
2022-12-25T05:24:56.171Z,99.99
2022-12-25T05:28:04.952Z,99.99
2022-12-25T05:31:07.241Z,99.99
2022-12-25T05:34:09.458Z,99.99
2022-12-25T05:37:11.714Z,99.99
2022-12-25T05:40:13.994Z,99.99
2022-12-25T05:43:16.265Z,99.99
2022-12-25T05:46:18.719Z,99.56
2022-12-25T05:49:20.991Z,99.55
2022-12-25T05:52:23.469Z,99.93
2022-12-25T05:55:25.671Z,99.83
2022-12-25T05:58:28.369Z,99.83
2022-12-25T06:01:30.780Z,99.97
2022-12-25T06:04:33.143Z,99.99
2022-12-25T06:07:35.343Z,99.75
2022-12-25T06:10:37.637Z,99.64
2022-12-25T06:13:40.407Z,99.31
2022-12-25T06:16:42.768Z,99.43
2022-12-25T06:19:45.107Z,99.14
2022-12-25T06:22:47.396Z,98.92
2022-12-25T06:25:49.684Z,98.58
2022-12-25T06:28:52.720Z,98.56
2022-12-25T06:31:57.397Z,98.60
2022-12-25T06:34:59.763Z,98.99
2022-12-25T06:38:01.988Z,98.78
2022-12-25T06:41:07.275Z,98.76
2022-12-25T06:44:09.526Z,98.65
2022-12-25T06:47:11.818Z,98.94
2022-12-25T06:50:14.074Z,98.72
2022-12-25T06:53:16.286Z,98.66
2022-12-25T06:56:21.409Z,98.47
2022-12-25T06:59:23.699Z,98.70
2022-12-25T07:02:26.206Z,98.67
2022-12-25T07:05:28.473Z,98.70
2022-12-25T07:08:30.876Z,98.37
2022-12-25T07:11:33.097Z,97.96
2022-12-25T07:14:35.321Z,97.65
2022-12-25T07:17:37.549Z,96.79
2022-12-25T07:20:39.798Z,96.54
2022-12-25T07:23:43.372Z,95.87
2022-12-25T07:26:45.637Z,96.06
2022-12-25T07:29:47.896Z,95.98
2022-12-25T07:32:51.728Z,97.34
2022-12-25T07:35:53.967Z,97.03
2022-12-25T07:38:56.905Z,96.93
2022-12-25T07:41:59.140Z,96.93
2022-12-25T07:45:03.445Z,96.61
2022-12-25T07:48:08.432Z,97.05
2022-12-25T07:51:16.169Z,95.95
2022-12-25T07:54:18.601Z,96.00
2022-12-25T07:57:20.839Z,95.64
2022-12-25T08:00:23.180Z,94.10
2022-12-25T08:03:25.564Z,94.49
2022-12-25T08:06:31.732Z,93.21
2022-12-25T08:09:35.406Z,92.62
2022-12-25T08:12:37.647Z,91.95
2022-12-25T08:15:40.747Z,91.97
2022-12-25T08:18:43.717Z,92.61
2022-12-25T08:21:46.094Z,92.19
2022-12-25T08:24:48.400Z,92.27
2022-12-25T08:27:50.636Z,91.88
2022-12-25T08:30:52.959Z,90.21
2022-12-25T08:33:57.450Z,89.81
2022-12-25T08:36:59.689Z,89.47
2022-12-25T08:40:02.032Z,89.38
2022-12-25T08:43:04.566Z,87.26
2022-12-25T08:46:07.708Z,84.26
2022-12-25T08:49:10.181Z,75.85
2022-12-25T08:52:12.367Z,71.56
2022-12-25T08:55:14.651Z,72.79
2022-12-25T08:58:16.897Z,71.91
2022-12-25T09:01:19.513Z,72.53
2022-12-25T09:04:22.050Z,71.94
2022-12-25T09:07:24.301Z,71.88
2022-12-25T09:10:26.569Z,73.36
2022-12-25T09:13:29.034Z,75.09
2022-12-25T09:16:31.319Z,76.32
2022-12-25T09:19:33.654Z,74.17
2022-12-25T09:22:35.924Z,72.00
2022-12-25T09:25:38.189Z,69.56
2022-12-25T09:28:45.176Z,68.17
2022-12-25T09:31:50.970Z,66.75
2022-12-25T09:34:53.202Z,68.41
2022-12-25T09:37:55.446Z,71.07
2022-12-25T09:41:13.381Z,73.51
2022-12-25T09:44:23.856Z,74.28
2022-12-25T09:47:29.678Z,75.72
2022-12-25T09:50:37.877Z,75.32
2022-12-25T09:53:45.511Z,74.09
2022-12-25T09:56:47.824Z,73.27
2022-12-25T09:59:54.320Z,73.72
2022-12-25T10:03:15.000Z,71.52
2022-12-25T10:06:27.519Z,71.38
2022-12-25T10:09:44.160Z,70.26
2022-12-25T10:13:12.593Z,70.15
2022-12-25T10:16:36.465Z,65.31
2022-12-25T10:19:57.006Z,66.60
2022-12-25T10:23:01.987Z,67.10
2022-12-25T10:26:15.768Z,68.54
2022-12-25T10:29:19.681Z,68.88
2022-12-25T10:32:22.401Z,69.99
2022-12-25T10:35:32.930Z,70.30
2022-12-25T10:38:36.718Z,71.09
2022-12-25T10:42:04.532Z,70.72
2022-12-25T10:45:09.414Z,71.10
2022-12-25T10:48:27.808Z,72.15
2022-12-25T10:51:38.797Z,72.71
2022-12-25T10:54:41.274Z,71.88
2022-12-25T10:57:46.993Z,70.38
2022-12-25T11:01:01.416Z,66.93
2022-12-25T11:04:03.859Z,66.27
2022-12-25T11:07:15.231Z,58.04
2022-12-25T11:10:30.322Z,52.54
2022-12-25T11:13:40.593Z,51.31
2022-12-25T11:16:43.118Z,56.63
2022-12-25T11:19:53.020Z,60.43
2022-12-25T11:22:55.594Z,63.71
2022-12-25T11:26:03.675Z,66.27
2022-12-25T11:29:30.907Z,68.79
2022-12-25T11:32:41.361Z,68.92
2022-12-25T11:35:50.394Z,70.36
2022-12-25T11:38:52.653Z,71.14
2022-12-25T11:42:18.207Z,71.36
2022-12-25T11:45:33.288Z,71.11
2022-12-25T11:48:44.616Z,71.45
2022-12-25T11:51:50.216Z,71.05
2022-12-25T11:55:08.392Z,71.05
2022-12-25T11:58:20.310Z,68.40
2022-12-25T12:01:35.306Z,66.29
2022-12-25T12:04:43.525Z,67.97
2022-12-25T12:07:59.268Z,69.23
2022-12-25T12:11:23.016Z,70.23
2022-12-25T12:15:03.868Z,71.13
2022-12-25T12:18:32.446Z,71.54
2022-12-25T12:21:34.661Z,72.24
2022-12-25T12:24:43.110Z,73.15
2022-12-25T12:27:45.848Z,73.12
2022-12-25T12:31:03.718Z,73.24
2022-12-25T12:34:07.221Z,74.10
2022-12-25T12:37:25.189Z,74.08
2022-12-25T12:40:33.740Z,74.64
2022-12-25T12:43:42.090Z,74.51
2022-12-25T12:46:53.224Z,74.71
2022-12-25T12:50:00.039Z,74.26
2022-12-25T12:53:26.722Z,75.13
2022-12-25T12:56:29.193Z,75.59
2022-12-25T12:59:40.084Z,75.84
2022-12-25T13:03:05.853Z,75.73
2022-12-25T13:06:20.423Z,75.12
2022-12-25T13:09:31.657Z,75.16
2022-12-25T13:12:34.213Z,75.33
2022-12-25T13:15:36.680Z,75.88
2022-12-25T13:18:40.088Z,75.99
2022-12-25T13:21:55.768Z,76.64
2022-12-25T13:25:03.078Z,76.45
2022-12-25T13:28:05.368Z,76.44
2022-12-25T13:31:13.599Z,76.46
2022-12-25T13:34:35.725Z,76.29
2022-12-25T13:37:38.792Z,76.67
2022-12-25T13:41:01.058Z,76.90
2022-12-25T13:44:06.694Z,77.01
2022-12-25T13:47:19.046Z,77.05
2022-12-25T13:50:31.035Z,77.11
2022-12-25T13:53:33.214Z,77.47
2022-12-25T13:56:36.165Z,77.45
2022-12-25T13:59:38.723Z,77.42
2022-12-25T14:02:41.178Z,77.49
2022-12-25T14:05:43.835Z,77.97
2022-12-25T14:08:47.258Z,77.86
2022-12-25T14:11:55.920Z,78.21
2022-12-25T14:15:00.228Z,78.06
2022-12-25T14:18:02.886Z,77.96
2022-12-25T14:21:10.118Z,77.85
2022-12-25T14:24:14.259Z,78.37
2022-12-25T14:27:22.282Z,78.29
2022-12-25T14:30:28.961Z,78.61
2022-12-25T14:33:38.188Z,79.05
2022-12-25T14:36:40.542Z,79.42
2022-12-25T14:39:49.503Z,79.57
2022-12-25T14:43:03.522Z,79.33
2022-12-25T14:46:12.556Z,79.78
2022-12-25T14:49:25.161Z,79.74
2022-12-25T14:52:43.466Z,79.87
2022-12-25T14:55:51.807Z,80.07
2022-12-25T14:58:56.901Z,80.45
2022-12-25T15:02:03.824Z,80.72
2022-12-25T15:05:23.696Z,80.63
2022-12-25T15:08:26.109Z,81.05
2022-12-25T15:11:29.302Z,80.97
2022-12-25T15:14:31.717Z,80.97
2022-12-25T15:17:36.538Z,81.11
2022-12-25T15:20:39.141Z,81.12
2022-12-25T15:23:41.377Z,81.11
2022-12-25T15:26:43.967Z,81.16
2022-12-25T15:30:09.296Z,80.95
2022-12-25T15:33:18.911Z,81.00
2022-12-25T15:36:22.310Z,81.17
2022-12-25T15:39:24.579Z,80.91
2022-12-25T15:42:26.812Z,80.88
2022-12-25T15:45:30.703Z,81.05
2022-12-25T15:48:32.891Z,81.11
2022-12-25T15:51:35.284Z,81.31
2022-12-25T15:54:37.515Z,81.03
2022-12-25T15:57:44.361Z,81.14
2022-12-25T16:00:46.556Z,81.24
2022-12-25T16:03:48.998Z,81.59
2022-12-25T16:06:52.568Z,81.52
2022-12-25T16:10:01.881Z,81.93
2022-12-25T16:13:04.125Z,81.68
2022-12-25T16:16:06.997Z,81.88
2022-12-25T16:19:09.436Z,82.31
2022-12-25T16:22:20.226Z,82.16
2022-12-25T16:25:22.568Z,82.37
2022-12-25T16:28:24.777Z,81.96
2022-12-25T16:31:27.486Z,81.78
2022-12-25T16:34:29.784Z,81.57
2022-12-25T16:37:32.048Z,81.37
2022-12-25T16:40:34.347Z,81.57
2022-12-25T16:43:36.589Z,81.64
2022-12-25T16:46:40.311Z,81.92
2022-12-25T16:49:42.899Z,82.31
2022-12-25T16:52:45.230Z,82.62
2022-12-25T16:55:47.549Z,83.00
2022-12-25T16:58:49.766Z,83.56
2022-12-25T17:01:55.138Z,84.16
2022-12-25T17:04:57.871Z,84.65
2022-12-25T17:08:00.190Z,85.05
2022-12-25T17:11:04.978Z,85.64
2022-12-25T17:14:07.286Z,86.01
2022-12-25T17:17:09.503Z,86.34
2022-12-25T17:20:12.166Z,86.77
2022-12-25T17:23:14.409Z,87.30
2022-12-25T17:26:16.684Z,87.59
2022-12-25T17:29:22.308Z,87.71
2022-12-25T17:32:25.334Z,88.21
2022-12-25T17:35:27.542Z,88.69
2022-12-25T17:38:31.698Z,88.95
2022-12-25T17:41:34.510Z,89.50
2022-12-25T17:44:36.712Z,89.65
2022-12-25T17:47:38.952Z,89.93
2022-12-25T17:50:41.741Z,89.02
2022-12-25T17:53:46.863Z,89.86
2022-12-25T17:56:49.533Z,90.18
2022-12-25T17:59:51.855Z,90.06
2022-12-25T18:02:54.344Z,89.84
2022-12-25T18:06:00.178Z,90.15
2022-12-25T18:09:02.581Z,90.94
2022-12-25T18:12:05.271Z,91.06
2022-12-25T18:15:08.079Z,91.78
2022-12-25T18:18:10.506Z,91.64
2022-12-25T18:21:12.915Z,91.79
2022-12-25T18:24:15.208Z,91.84
2022-12-25T18:27:17.418Z,91.87
2022-12-25T18:30:20.106Z,91.80
2022-12-25T18:33:22.369Z,91.81
2022-12-25T18:36:26.696Z,91.96
2022-12-25T18:39:30.372Z,91.86
2022-12-25T18:42:41.408Z,92.05
2022-12-25T18:45:44.013Z,91.96
2022-12-25T18:48:46.345Z,91.69
2022-12-25T18:51:49.009Z,91.56
2022-12-25T18:54:51.219Z,91.52
2022-12-25T18:57:53.585Z,91.63
2022-12-25T19:00:56.049Z,91.45
2022-12-25T19:04:04.505Z,91.06
2022-12-25T19:07:07.976Z,91.02
2022-12-25T19:10:10.589Z,90.97
2022-12-25T19:13:12.884Z,90.87
2022-12-25T19:16:15.676Z,90.19
2022-12-25T19:19:18.245Z,90.11
2022-12-25T19:22:20.458Z,90.11
2022-12-25T19:25:22.710Z,89.97
2022-12-25T19:28:25.259Z,89.95
2022-12-25T19:31:27.581Z,89.89
2022-12-25T19:34:29.846Z,90.29
2022-12-25T19:37:32.125Z,90.54
2022-12-25T19:40:38.823Z,90.44
2022-12-25T19:43:47.559Z,90.62
2022-12-25T19:46:50.076Z,90.47
2022-12-25T19:49:53.356Z,90.35
2022-12-25T19:52:56.651Z,90.26
2022-12-25T19:56:02.409Z,90.51
2022-12-25T19:59:04.700Z,90.68
2022-12-25T20:02:07.121Z,90.99
2022-12-25T20:05:09.461Z,91.02
2022-12-25T20:08:11.693Z,91.01
2022-12-25T20:11:17.145Z,90.98
2022-12-25T20:14:19.812Z,91.50
2022-12-25T20:17:22.093Z,91.49
2022-12-25T20:20:24.372Z,91.48
2022-12-25T20:23:27.443Z,91.71
2022-12-25T20:26:31.509Z,91.71
2022-12-25T20:29:34.020Z,92.04
2022-12-25T20:32:36.260Z,92.08
2022-12-25T20:35:38.578Z,92.16
2022-12-25T20:38:41.538Z,92.20
2022-12-25T20:41:43.894Z,92.24
2022-12-25T20:44:46.183Z,92.77
2022-12-25T20:47:48.401Z,93.06
2022-12-25T20:50:51.513Z,93.20
2022-12-25T20:53:54.535Z,93.44
2022-12-25T20:56:57.164Z,93.43
2022-12-25T20:59:59.378Z,93.68
2022-12-25T21:03:01.744Z,93.88
2022-12-25T21:06:04.486Z,93.59
2022-12-25T21:09:06.845Z,93.92
2022-12-25T21:12:09.226Z,94.05
2022-12-25T21:15:15.420Z,94.24
2022-12-25T21:18:20.984Z,93.95
2022-12-25T21:21:23.306Z,93.95
2022-12-25T21:24:25.585Z,94.39
2022-12-25T21:27:29.327Z,94.13
2022-12-25T21:30:31.810Z,94.72
2022-12-25T21:33:52.616Z,94.26
2022-12-25T21:36:54.991Z,94.89
2022-12-25T21:39:57.309Z,94.72
2022-12-25T21:43:00.591Z,95.45
2022-12-25T21:46:07.340Z,95.64
2022-12-25T21:49:09.731Z,95.67
2022-12-25T21:52:12.171Z,95.66
2022-12-25T21:55:14.414Z,95.82
2022-12-25T21:58:16.688Z,95.54
2022-12-25T22:01:19.018Z,95.46
2022-12-25T22:04:22.951Z,95.15
2022-12-25T22:07:25.207Z,94.66
2022-12-25T22:10:27.735Z,95.04
2022-12-25T22:13:48.481Z,95.32
2022-12-25T22:17:09.117Z,95.35
2022-12-25T22:20:19.608Z,95.07
2022-12-25T22:23:22.063Z,95.07
2022-12-25T22:26:24.252Z,94.97
2022-12-25T22:29:26.554Z,94.94
2022-12-25T22:32:28.963Z,94.73
2022-12-25T22:35:31.263Z,94.66
2022-12-25T22:38:34.302Z,94.83
2022-12-25T22:41:36.555Z,94.69
2022-12-25T22:44:38.968Z,94.66
2022-12-25T22:47:41.927Z,94.85
2022-12-25T22:50:44.219Z,94.94
2022-12-25T22:53:46.438Z,94.87
2022-12-25T22:56:50.464Z,94.81
2022-12-25T22:59:53.239Z,94.85
2022-12-25T23:02:55.673Z,94.88
2022-12-25T23:05:58.016Z,94.55
2022-12-25T23:09:01.249Z,94.37
2022-12-25T23:12:03.732Z,93.97
2022-12-25T23:15:06.579Z,94.50
2022-12-25T23:18:27.396Z,94.45
2022-12-25T23:21:48.367Z,94.45
2022-12-25T23:25:09.134Z,94.49
2022-12-25T23:28:11.829Z,94.51
2022-12-25T23:31:14.397Z,94.07
2022-12-25T23:34:16.604Z,94.33
2022-12-25T23:37:19.763Z,94.41
2022-12-25T23:40:22.003Z,94.24
2022-12-25T23:43:24.306Z,94.46
2022-12-25T23:46:26.661Z,94.31
2022-12-25T23:49:29.518Z,94.27
2022-12-25T23:52:31.747Z,94.39
2022-12-25T23:55:34.345Z,94.46
2022-12-25T23:58:36.893Z,94.39
